createdAt,value
2023-01-26T00:01:36.948Z,51.97
2023-01-26T00:04:03.513Z,50.50
2023-01-26T00:06:30.041Z,58.27
2023-01-26T00:08:57.374Z,50.97
2023-01-26T00:11:24.378Z,44.80
2023-01-26T00:13:50.868Z,40.33
2023-01-26T00:16:17.435Z,58.83
2023-01-26T00:18:43.945Z,44.37
2023-01-26T00:21:10.431Z,57.47
2023-01-26T00:23:37.006Z,46.17
2023-01-26T00:26:03.544Z,70.20
2023-01-26T00:28:30.057Z,52.47
2023-01-26T00:30:56.591Z,40.30
2023-01-26T00:33:23.059Z,53.97
2023-01-26T00:35:49.505Z,55.00
2023-01-26T00:38:15.991Z,41.10
2023-01-26T00:40:42.493Z,51.27
2023-01-26T00:43:09.024Z,47.93
2023-01-26T00:45:35.900Z,54.10
2023-01-26T00:48:02.414Z,57.27
2023-01-26T00:50:28.888Z,57.83
2023-01-26T00:52:55.483Z,54.03
2023-01-26T00:55:21.946Z,57.17
2023-01-26T00:57:48.412Z,48.57
2023-01-26T01:00:16.630Z,60.57
2023-01-26T01:02:43.122Z,54.10
2023-01-26T01:05:09.617Z,53.83
2023-01-26T01:07:36.131Z,54.93
2023-01-26T01:10:02.600Z,75.40
2023-01-26T01:12:29.089Z,61.63
2023-01-26T01:14:55.585Z,50.20
2023-01-26T01:17:22.131Z,63.70
2023-01-26T01:19:48.605Z,54.63
2023-01-26T01:22:15.062Z,45.37
2023-01-26T01:24:41.541Z,50.27
2023-01-26T01:27:08.030Z,48.07
2023-01-26T01:29:34.744Z,52.53
2023-01-26T01:32:01.250Z,57.00
2023-01-26T01:34:27.837Z,43.80
2023-01-26T01:36:54.297Z,44.00
2023-01-26T01:39:20.801Z,53.67
2023-01-26T01:41:47.364Z,36.70
2023-01-26T01:44:13.867Z,49.70
2023-01-26T01:46:40.458Z,52.40
2023-01-26T01:49:07.007Z,45.47
2023-01-26T01:51:33.895Z,59.10
2023-01-26T01:54:00.473Z,50.67
2023-01-26T01:56:26.971Z,60.90
2023-01-26T01:58:53.728Z,54.23
2023-01-26T02:01:20.265Z,55.60
2023-01-26T02:03:46.906Z,60.20
2023-01-26T02:06:13.678Z,43.87
2023-01-26T02:08:40.225Z,44.63
2023-01-26T02:11:06.746Z,64.83
2023-01-26T02:13:33.238Z,53.77
2023-01-26T02:15:59.771Z,55.10
2023-01-26T02:18:26.358Z,63.13
2023-01-26T02:20:52.913Z,60.60
2023-01-26T02:23:19.960Z,73.77
2023-01-26T02:25:46.434Z,66.70
2023-01-26T02:28:12.891Z,71.57
2023-01-26T02:30:39.491Z,56.77
2023-01-26T02:33:05.993Z,49.73
2023-01-26T02:35:32.497Z,62.10
2023-01-26T02:37:58.986Z,51.87
2023-01-26T02:40:25.468Z,64.93
2023-01-26T02:42:55.012Z,51.13
2023-01-26T02:45:21.509Z,55.53
2023-01-26T02:47:48.056Z,65.00
2023-01-26T02:50:14.612Z,57.13
2023-01-26T02:52:41.112Z,53.23
2023-01-26T02:55:22.991Z,80.07
2023-01-26T02:57:49.482Z,68.70
2023-01-26T03:00:16.050Z,89.50
2023-01-26T03:02:42.568Z,62.97
2023-01-26T03:05:09.174Z,65.00
2023-01-26T03:07:35.673Z,46.40
2023-01-26T03:10:02.207Z,52.80
2023-01-26T03:12:28.680Z,52.83
2023-01-26T03:15:13.892Z,67.40
2023-01-26T03:17:40.376Z,59.63
2023-01-26T03:20:25.722Z,58.37
2023-01-26T03:23:10.820Z,63.00
2023-01-26T03:25:56.122Z,67.97
2023-01-26T03:28:22.960Z,58.90
2023-01-26T03:30:49.625Z,59.50
2023-01-26T03:33:16.171Z,51.80
2023-01-26T03:35:42.660Z,61.80
2023-01-26T03:38:09.134Z,72.60
2023-01-26T03:40:54.573Z,68.33
2023-01-26T03:43:40.364Z,53.00
2023-01-26T03:46:25.460Z,50.03
2023-01-26T03:49:10.793Z,63.53
2023-01-26T03:51:55.942Z,48.73
2023-01-26T03:54:41.416Z,70.40
2023-01-26T03:57:07.919Z,51.23
2023-01-26T03:59:40.634Z,44.23
2023-01-26T04:02:26.006Z,46.30
2023-01-26T04:05:11.145Z,46.67
2023-01-26T04:07:56.484Z,47.77
2023-01-26T04:10:23.066Z,57.83
2023-01-26T04:13:08.053Z,53.90
2023-01-26T04:15:53.407Z,44.53
2023-01-26T04:18:38.452Z,43.63
2023-01-26T04:21:23.439Z,40.97
2023-01-26T04:23:49.943Z,55.47
2023-01-26T04:26:16.517Z,55.63
2023-01-26T04:28:43.052Z,51.37
2023-01-26T04:31:09.616Z,52.00
2023-01-26T04:33:36.091Z,49.77
2023-01-26T04:36:02.618Z,58.57
2023-01-26T04:38:29.138Z,58.43
2023-01-26T04:40:55.685Z,44.73
2023-01-26T04:43:22.146Z,60.50
2023-01-26T04:45:48.648Z,52.80
2023-01-26T04:48:15.169Z,45.63
2023-01-26T04:50:41.645Z,48.93
2023-01-26T04:53:08.169Z,51.70
2023-01-26T04:55:34.671Z,45.60
2023-01-26T04:58:02.117Z,46.07
2023-01-26T05:00:29.104Z,45.83
2023-01-26T05:02:55.577Z,47.57
2023-01-26T05:05:22.144Z,44.27
2023-01-26T05:07:50.248Z,45.50
2023-01-26T05:10:16.959Z,47.83
2023-01-26T05:12:43.617Z,37.53
2023-01-26T05:15:10.114Z,40.03
2023-01-26T05:17:36.559Z,36.83
2023-01-26T05:20:03.039Z,37.93
2023-01-26T05:22:29.594Z,46.53
2023-01-26T05:24:56.091Z,41.03
2023-01-26T05:27:22.650Z,29.23
2023-01-26T05:29:49.585Z,38.27
2023-01-26T05:32:16.136Z,31.80
2023-01-26T05:34:42.604Z,40.90
2023-01-26T05:37:09.120Z,35.77
2023-01-26T05:39:35.605Z,45.03
2023-01-26T05:42:02.078Z,31.67
2023-01-26T05:44:29.603Z,33.70
2023-01-26T05:46:56.117Z,36.53
2023-01-26T05:49:22.619Z,35.33
2023-01-26T05:51:49.172Z,37.30
2023-01-26T05:54:15.668Z,37.23
2023-01-26T05:56:42.218Z,45.87
2023-01-26T05:59:08.671Z,40.80
2023-01-26T06:01:35.247Z,28.50
2023-01-26T06:04:01.950Z,44.43
2023-01-26T06:06:28.479Z,44.03
2023-01-26T06:08:54.927Z,38.20
2023-01-26T06:11:21.410Z,32.70
2023-01-26T06:13:48.704Z,34.97
2023-01-26T06:16:15.245Z,31.37
2023-01-26T06:18:41.817Z,39.70
2023-01-26T06:21:08.365Z,27.40
2023-01-26T06:23:34.985Z,30.23
2023-01-26T06:26:01.561Z,29.43
2023-01-26T06:28:28.077Z,41.97
2023-01-26T06:30:54.604Z,41.47
2023-01-26T06:33:22.308Z,35.43
2023-01-26T06:35:48.836Z,29.83
2023-01-26T06:38:15.489Z,21.00
2023-01-26T06:40:42.014Z,26.67
2023-01-26T06:43:08.555Z,26.53
2023-01-26T06:45:35.072Z,24.73
2023-01-26T06:48:01.589Z,35.27
2023-01-26T06:50:28.128Z,20.07
2023-01-26T06:52:54.628Z,27.23
2023-01-26T06:55:21.114Z,23.20
2023-01-26T06:57:47.609Z,30.97
2023-01-26T07:00:14.077Z,19.80
2023-01-26T07:02:40.635Z,22.00
2023-01-26T07:05:07.139Z,33.13
2023-01-26T07:07:33.684Z,24.43
2023-01-26T07:10:00.217Z,30.90
2023-01-26T07:12:26.733Z,25.17
2023-01-26T07:14:53.257Z,48.30
2023-01-26T07:17:19.818Z,31.70
2023-01-26T07:19:46.287Z,40.53
2023-01-26T07:22:12.773Z,27.33
2023-01-26T07:24:39.298Z,35.63
2023-01-26T07:27:05.812Z,33.77
2023-01-26T07:29:32.297Z,39.97
2023-01-26T07:31:58.839Z,23.77
2023-01-26T07:34:25.338Z,24.67
2023-01-26T07:36:51.826Z,35.33
2023-01-26T07:39:18.438Z,31.63
2023-01-26T07:41:47.246Z,24.40
2023-01-26T07:44:13.879Z,31.67
2023-01-26T07:46:41.337Z,26.23
2023-01-26T07:49:07.911Z,84.97
2023-01-26T07:51:34.513Z,30.93
2023-01-26T07:54:01.284Z,30.93
2023-01-26T07:56:27.768Z,27.30
2023-01-26T07:58:54.305Z,32.40
2023-01-26T08:01:20.875Z,41.33
2023-01-26T08:03:47.445Z,30.57
2023-01-26T08:06:14.758Z,33.33
2023-01-26T08:08:42.311Z,25.97
2023-01-26T08:11:08.821Z,36.73
2023-01-26T08:13:36.241Z,27.87
2023-01-26T08:16:02.949Z,24.20
2023-01-26T08:18:29.725Z,27.17
2023-01-26T08:20:56.287Z,29.37
2023-01-26T08:23:22.861Z,32.90
2023-01-26T08:25:49.375Z,31.97
2023-01-26T08:28:15.957Z,33.77
2023-01-26T08:30:42.683Z,27.80
2023-01-26T08:33:09.201Z,52.13
2023-01-26T08:35:35.719Z,34.00
2023-01-26T08:38:02.403Z,39.57
2023-01-26T08:40:28.950Z,40.27
2023-01-26T08:42:55.521Z,48.47
2023-01-26T08:45:22.025Z,35.23
2023-01-26T08:47:48.580Z,44.40
2023-01-26T08:50:15.136Z,42.43
2023-01-26T08:52:41.674Z,33.27
2023-01-26T08:55:08.168Z,42.10
2023-01-26T08:57:34.752Z,42.07
2023-01-26T09:00:01.314Z,42.33
2023-01-26T09:02:28.669Z,34.00
2023-01-26T09:04:55.253Z,30.97
2023-01-26T09:07:21.775Z,31.33
2023-01-26T09:09:48.289Z,29.80
2023-01-26T09:12:14.771Z,28.60
2023-01-26T09:14:41.834Z,29.00
2023-01-26T09:17:08.335Z,36.00
2023-01-26T09:19:34.836Z,42.50
2023-01-26T09:22:01.352Z,69.53
2023-01-26T09:24:27.910Z,28.90
2023-01-26T09:26:54.405Z,36.00
2023-01-26T09:29:20.960Z,31.40
2023-01-26T09:31:47.592Z,45.30
2023-01-26T09:34:14.127Z,44.27
2023-01-26T09:36:41.597Z,54.50
2023-01-26T09:39:08.399Z,48.70
2023-01-26T09:41:35.121Z,43.23
2023-01-26T09:44:01.642Z,47.90
2023-01-26T09:46:28.341Z,34.10
2023-01-26T09:48:54.907Z,42.23
2023-01-26T09:51:23.174Z,33.10
2023-01-26T09:53:49.702Z,46.10
2023-01-26T09:56:16.319Z,48.30
2023-01-26T09:58:43.742Z,43.60
2023-01-26T10:01:10.250Z,41.90
2023-01-26T10:03:36.774Z,31.63
2023-01-26T10:06:03.366Z,40.00
2023-01-26T10:08:29.926Z,49.90
2023-01-26T10:10:56.452Z,45.70
2023-01-26T10:13:23.257Z,32.43
2023-01-26T10:15:49.807Z,46.90
2023-01-26T10:18:16.324Z,31.87
2023-01-26T10:20:42.896Z,38.07
2023-01-26T10:23:09.375Z,32.47
2023-01-26T10:25:36.933Z,40.07
2023-01-26T10:28:03.463Z,37.00
2023-01-26T10:30:30.027Z,31.30
2023-01-26T10:32:56.550Z,45.47
2023-01-26T10:35:23.100Z,33.63
2023-01-26T10:37:49.724Z,36.37
2023-01-26T10:40:17.307Z,31.23
2023-01-26T10:42:43.814Z,40.83
2023-01-26T10:45:10.356Z,53.33
2023-01-26T10:47:36.863Z,44.67
2023-01-26T10:50:03.454Z,35.07
2023-01-26T10:52:29.996Z,43.50
2023-01-26T10:54:56.527Z,45.80
2023-01-26T10:57:23.017Z,42.33
2023-01-26T10:59:49.528Z,34.30
2023-01-26T11:02:16.471Z,27.07
2023-01-26T11:04:42.940Z,38.53
2023-01-26T11:07:10.037Z,38.27
2023-01-26T11:09:36.526Z,44.90
2023-01-26T11:12:03.562Z,46.50
2023-01-26T11:14:30.102Z,43.10
2023-01-26T11:16:56.606Z,34.80
2023-01-26T11:19:23.883Z,47.40
2023-01-26T11:21:50.373Z,38.63
2023-01-26T11:24:20.997Z,39.43
2023-01-26T11:26:47.515Z,28.40
2023-01-26T11:29:14.052Z,38.70
2023-01-26T11:31:40.629Z,35.20
2023-01-26T11:34:07.239Z,27.50
2023-01-26T11:36:34.488Z,27.43
2023-01-26T11:39:00.970Z,24.63
2023-01-26T11:41:27.458Z,33.00
2023-01-26T11:43:53.951Z,40.47
2023-01-26T11:46:21.133Z,33.03
2023-01-26T11:48:47.626Z,28.57
2023-01-26T11:51:14.122Z,24.37
2023-01-26T11:53:40.692Z,52.23
2023-01-26T11:56:07.198Z,33.83
2023-01-26T11:58:33.786Z,31.23
2023-01-26T12:01:00.289Z,41.93
2023-01-26T12:03:26.789Z,32.70
2023-01-26T12:05:53.384Z,32.40
2023-01-26T12:08:19.891Z,25.90
2023-01-26T12:10:46.387Z,27.10
2023-01-26T12:13:12.914Z,29.30
2023-01-26T12:15:39.434Z,26.87
2023-01-26T12:18:05.976Z,24.37
2023-01-26T12:20:32.479Z,21.30
2023-01-26T12:22:59.386Z,24.50
2023-01-26T12:25:25.926Z,25.90
2023-01-26T12:27:52.430Z,21.10
2023-01-26T12:30:19.017Z,33.57
2023-01-26T12:32:45.586Z,19.33
2023-01-26T12:35:12.592Z,26.30
2023-01-26T12:37:39.275Z,26.60
2023-01-26T12:40:07.375Z,25.10
2023-01-26T12:42:33.872Z,28.33
2023-01-26T12:45:01.724Z,22.47
2023-01-26T12:47:28.290Z,17.90
2023-01-26T12:49:54.832Z,25.33
2023-01-26T12:52:21.360Z,20.70
2023-01-26T12:54:47.867Z,26.97
2023-01-26T12:57:15.000Z,33.20
2023-01-26T12:59:47.860Z,25.83
2023-01-26T13:02:15.297Z,21.30
2023-01-26T13:04:42.019Z,19.43
2023-01-26T13:07:08.527Z,27.77
2023-01-26T13:09:35.212Z,20.03
2023-01-26T13:12:01.727Z,19.57
2023-01-26T13:14:28.268Z,19.20
2023-01-26T13:16:54.878Z,15.63
2023-01-26T13:19:21.344Z,17.10
2023-01-26T13:21:47.894Z,15.90
2023-01-26T13:24:14.382Z,30.23
2023-01-26T13:26:41.229Z,15.53
2023-01-26T13:29:07.690Z,13.97
2023-01-26T13:31:34.328Z,14.90
2023-01-26T13:34:00.906Z,14.57
2023-01-26T13:36:27.360Z,15.20
2023-01-26T13:38:53.860Z,18.00
2023-01-26T13:41:20.760Z,12.37
2023-01-26T13:43:47.279Z,23.40
2023-01-26T13:46:13.931Z,18.30
2023-01-26T13:48:40.628Z,17.97
2023-01-26T13:51:07.088Z,20.90
2023-01-26T13:53:33.730Z,19.07
2023-01-26T13:56:00.347Z,16.03
2023-01-26T13:58:27.660Z,24.37
2023-01-26T14:00:54.163Z,25.70
2023-01-26T14:03:20.931Z,17.73
2023-01-26T14:05:47.439Z,16.53
2023-01-26T14:08:13.951Z,14.70
2023-01-26T14:10:40.467Z,15.37
2023-01-26T14:13:06.973Z,18.67
2023-01-26T14:15:33.534Z,13.67
2023-01-26T14:18:00.088Z,12.07
2023-01-26T14:20:26.566Z,17.17
2023-01-26T14:22:53.098Z,11.77
2023-01-26T14:25:19.918Z,20.50
2023-01-26T14:27:46.428Z,19.23
2023-01-26T14:30:13.152Z,16.97
2023-01-26T14:32:39.863Z,16.17
2023-01-26T14:35:06.385Z,17.70
2023-01-26T14:37:32.866Z,14.07
2023-01-26T14:39:59.389Z,15.67
2023-01-26T14:42:25.864Z,12.67
2023-01-26T14:44:52.366Z,10.00
2023-01-26T14:47:18.879Z,12.20
2023-01-26T14:49:45.378Z,13.57
2023-01-26T14:52:11.857Z,13.90
2023-01-26T14:54:39.448Z,12.33
2023-01-26T14:57:07.140Z,9.53
2023-01-26T14:59:34.736Z,16.13
2023-01-26T15:02:01.322Z,18.10
2023-01-26T15:04:27.896Z,13.00
2023-01-26T15:06:54.356Z,9.87
2023-01-26T15:09:20.969Z,12.73
2023-01-26T15:12:13.837Z,14.53
2023-01-26T15:14:40.325Z,11.80
2023-01-26T15:17:06.845Z,15.87
2023-01-26T15:19:33.347Z,11.53
2023-01-26T15:21:59.897Z,11.27
2023-01-26T15:24:26.499Z,15.57
2023-01-26T15:26:52.980Z,10.90
2023-01-26T15:29:19.465Z,14.60
2023-01-26T15:31:46.129Z,14.20
2023-01-26T15:34:12.698Z,13.83
2023-01-26T15:36:39.190Z,11.97
2023-01-26T15:39:05.684Z,17.47
2023-01-26T15:41:32.171Z,16.00
2023-01-26T15:43:59.474Z,12.00
2023-01-26T15:46:26.499Z,10.40
2023-01-26T15:48:53.025Z,13.47
2023-01-26T15:51:19.562Z,16.20
2023-01-26T15:53:46.060Z,10.80
2023-01-26T15:56:12.548Z,12.23
2023-01-26T15:58:39.125Z,12.53
2023-01-26T16:01:05.767Z,16.03
2023-01-26T16:03:32.299Z,16.73
2023-01-26T16:05:58.766Z,23.93
2023-01-26T16:08:25.266Z,13.83
2023-01-26T16:10:51.781Z,20.83
2023-01-26T16:13:18.262Z,15.73
2023-01-26T16:15:44.852Z,18.90
2023-01-26T16:18:11.400Z,34.10
2023-01-26T16:20:37.863Z,13.10
2023-01-26T16:23:04.410Z,65.83
2023-01-26T16:25:30.901Z,31.60
2023-01-26T16:27:57.376Z,22.13
2023-01-26T16:30:24.101Z,12.77
2023-01-26T16:32:50.745Z,103.47
2023-01-26T16:35:17.342Z,145.70
2023-01-26T16:37:43.832Z,30.93
2023-01-26T16:40:10.337Z,96.30
2023-01-26T16:42:36.849Z,11.67
2023-01-26T16:45:03.395Z,12.00
2023-01-26T16:47:32.401Z,48.27
2023-01-26T16:49:58.940Z,15.27
2023-01-26T16:52:25.409Z,55.30
2023-01-26T16:54:53.876Z,51.67
2023-01-26T16:57:20.623Z,24.33
2023-01-26T16:59:47.174Z,95.40
2023-01-26T17:02:13.679Z,30.57
2023-01-26T17:04:40.225Z,12.80
2023-01-26T17:07:06.757Z,13.77
2023-01-26T17:09:33.275Z,10.50
2023-01-26T17:11:59.798Z,24.77
2023-01-26T17:14:26.343Z,10.07
2023-01-26T17:16:52.864Z,9.43
2023-01-26T17:19:19.325Z,9.90
2023-01-26T17:21:45.797Z,8.27
2023-01-26T17:24:12.361Z,20.13
2023-01-26T17:26:39.755Z,39.50
2023-01-26T17:29:06.300Z,26.23
2023-01-26T17:31:32.865Z,62.23
2023-01-26T17:33:59.372Z,39.13
2023-01-26T17:36:25.891Z,13.00
2023-01-26T17:38:53.059Z,22.97
2023-01-26T17:41:19.549Z,19.10
2023-01-26T17:43:47.604Z,22.57
2023-01-26T17:46:14.117Z,18.60
2023-01-26T17:48:40.630Z,13.90
2023-01-26T17:51:07.204Z,12.03
2023-01-26T17:53:33.707Z,17.20
2023-01-26T17:56:00.253Z,12.83
2023-01-26T17:58:26.752Z,11.47
2023-01-26T18:00:53.376Z,11.27
2023-01-26T18:03:25.984Z,15.40
2023-01-26T18:05:52.525Z,13.33
2023-01-26T18:08:19.121Z,11.70
2023-01-26T18:10:45.599Z,9.67
2023-01-26T18:13:12.089Z,40.63
2023-01-26T18:15:38.644Z,8.67
2023-01-26T18:18:06.415Z,16.90
2023-01-26T18:20:32.902Z,10.30
2023-01-26T18:23:00.096Z,9.40
2023-01-26T18:25:26.594Z,16.53
2023-01-26T18:27:53.113Z,9.87
2023-01-26T18:30:19.592Z,21.83
2023-01-26T18:32:46.124Z,16.33
2023-01-26T18:35:12.850Z,10.50
2023-01-26T18:37:39.614Z,17.73
2023-01-26T18:40:07.895Z,16.10
2023-01-26T18:42:34.444Z,12.87
2023-01-26T18:45:01.320Z,17.47
2023-01-26T18:47:28.125Z,18.83
2023-01-26T18:49:54.671Z,16.40
2023-01-26T18:52:21.159Z,17.77
2023-01-26T18:54:47.698Z,18.60
2023-01-26T18:57:14.305Z,14.13
2023-01-26T18:59:40.789Z,12.80
2023-01-26T19:02:07.365Z,23.13
2023-01-26T19:04:33.924Z,14.53
2023-01-26T19:07:00.473Z,15.93
2023-01-26T19:09:28.970Z,11.10
2023-01-26T19:11:56.161Z,17.33
2023-01-26T19:14:23.265Z,18.27
2023-01-26T19:16:49.845Z,11.73
2023-01-26T19:19:16.683Z,12.20
2023-01-26T19:21:43.219Z,12.50
2023-01-26T19:24:09.764Z,13.87
2023-01-26T19:26:36.290Z,14.43
2023-01-26T19:29:02.756Z,18.30
2023-01-26T19:31:29.425Z,12.10
2023-01-26T19:33:55.938Z,7.53
2023-01-26T19:36:23.378Z,11.53
2023-01-26T19:38:49.886Z,22.43
2023-01-26T19:41:16.401Z,11.20
2023-01-26T19:43:44.121Z,20.30
2023-01-26T19:46:11.687Z,11.23
2023-01-26T19:48:38.244Z,17.80
2023-01-26T19:51:05.221Z,11.43
2023-01-26T19:53:31.767Z,15.53
2023-01-26T19:55:59.744Z,13.40
2023-01-26T19:58:26.691Z,13.80
2023-01-26T20:00:53.196Z,16.47
2023-01-26T20:03:19.755Z,20.60
2023-01-26T20:05:46.247Z,18.00
2023-01-26T20:08:12.706Z,21.13
2023-01-26T20:10:39.231Z,11.40
2023-01-26T20:13:06.101Z,58.77
2023-01-26T20:15:34.422Z,117.53
2023-01-26T20:18:01.042Z,12.07
2023-01-26T20:20:27.527Z,13.53
2023-01-26T20:22:54.056Z,55.60
2023-01-26T20:25:20.607Z,11.13
2023-01-26T20:27:47.321Z,50.47
2023-01-26T20:30:14.766Z,13.60
2023-01-26T20:32:41.501Z,15.70
2023-01-26T20:35:08.591Z,16.20
2023-01-26T20:37:35.113Z,36.77
2023-01-26T20:40:01.683Z,15.60
2023-01-26T20:42:28.204Z,18.23
2023-01-26T20:44:57.310Z,17.13
2023-01-26T20:47:23.836Z,20.80
2023-01-26T20:49:50.760Z,19.93
2023-01-26T20:52:17.287Z,19.80
2023-01-26T20:54:43.794Z,21.00
2023-01-26T20:57:10.288Z,14.30
2023-01-26T20:59:36.926Z,15.07
2023-01-26T21:02:03.461Z,60.50
2023-01-26T21:04:31.975Z,20.20
2023-01-26T21:06:58.511Z,67.67
2023-01-26T21:09:25.041Z,22.50
2023-01-26T21:11:51.618Z,11.33
2023-01-26T21:14:18.105Z,13.40
2023-01-26T21:16:44.654Z,15.83
2023-01-26T21:19:11.155Z,10.30
2023-01-26T21:21:37.672Z,14.13
2023-01-26T21:24:04.169Z,13.87
2023-01-26T21:26:30.755Z,10.23
2023-01-26T21:28:57.306Z,11.13
2023-01-26T21:31:24.787Z,11.53
2023-01-26T21:33:51.330Z,12.37
2023-01-26T21:36:17.852Z,17.30
2023-01-26T21:38:44.335Z,13.70
2023-01-26T21:41:29.566Z,19.70
2023-01-26T21:43:56.167Z,14.90
2023-01-26T21:46:22.782Z,15.90
2023-01-26T21:48:49.319Z,12.53
2023-01-26T21:51:34.648Z,17.80
2023-01-26T21:54:01.990Z,10.47
2023-01-26T21:56:28.467Z,16.97
2023-01-26T21:58:57.168Z,13.27
2023-01-26T22:01:23.692Z,28.43
2023-01-26T22:03:50.201Z,17.10
2023-01-26T22:06:17.327Z,13.37
2023-01-26T22:08:43.819Z,9.47
2023-01-26T22:11:10.417Z,40.93
2023-01-26T22:13:36.943Z,8.33
2023-01-26T22:16:04.670Z,31.80
2023-01-26T22:18:31.294Z,10.33
2023-01-26T22:20:57.787Z,14.20
2023-01-26T22:23:24.284Z,11.73
2023-01-26T22:25:50.801Z,8.70
2023-01-26T22:28:17.387Z,25.13
2023-01-26T22:30:43.876Z,14.17
2023-01-26T22:33:10.386Z,12.90
2023-01-26T22:35:36.852Z,11.60
2023-01-26T22:38:03.363Z,12.53
2023-01-26T22:40:29.837Z,12.70
2023-01-26T22:42:56.299Z,15.27
2023-01-26T22:45:22.762Z,11.97
2023-01-26T22:47:49.393Z,13.17
2023-01-26T22:50:15.901Z,17.67
2023-01-26T22:52:42.401Z,18.10
2023-01-26T22:55:09.367Z,14.43
2023-01-26T22:57:35.849Z,43.80
2023-01-26T23:00:02.580Z,13.43
2023-01-26T23:02:29.133Z,12.00
2023-01-26T23:04:55.629Z,28.37
2023-01-26T23:07:22.104Z,22.87
2023-01-26T23:09:48.561Z,11.40
2023-01-26T23:12:15.027Z,14.93
2023-01-26T23:14:41.515Z,16.30
2023-01-26T23:17:08.143Z,13.23
2023-01-26T23:19:34.619Z,62.63
2023-01-26T23:22:01.118Z,15.53
2023-01-26T23:24:27.645Z,17.00
2023-01-26T23:26:54.178Z,31.23
2023-01-26T23:29:20.674Z,46.37
2023-01-26T23:31:47.164Z,47.97
2023-01-26T23:34:13.672Z,17.23
2023-01-26T23:36:40.424Z,17.73
2023-01-26T23:39:07.141Z,14.17
2023-01-26T23:41:33.631Z,26.33
2023-01-26T23:44:00.131Z,37.87
2023-01-26T23:46:26.655Z,38.10
2023-01-26T23:48:53.135Z,31.23
2023-01-26T23:51:19.634Z,39.17
2023-01-26T23:53:46.165Z,37.77
2023-01-26T23:56:12.634Z,22.23
2023-01-26T23:58:39.142Z,23.50
